Time;durP1;ratioP1;P1;durP2;ratioP2;P2;SDS_P1;SDS_P2;PMS_P1;PMS_P2;Temp;Humidity;BMP_temperature;BMP_pressure;BME280_temperature;BME280_humidity;BME280_pressure;Samples;Min_cycle;Max_cycle;Signal;HPM_P1;HPM_P2
2023/06/23 00:01:20;;;;;;;14.10;10.25;;;17.20;99.90;;;;;;5084168;28;20705;-56
2023/06/23 00:03:46;;;;;;;15.90;10.32;;;17.30;99.90;;;;;;5091420;28;20067;-56
2023/06/23 00:06:13;;;;;;;12.45;10.27;;;17.20;99.90;;;;;;5093609;28;20039;-56
2023/06/23 00:08:39;;;;;;;15.23;10.20;;;17.30;99.90;;;;;;5097061;28;20085;-56
2023/06/23 00:11:06;;;;;;;13.38;10.90;;;17.30;99.90;;;;;;5095166;28;20446;-56
2023/06/23 00:13:35;;;;;;;15.70;11.43;;;17.20;99.90;;;;;;5094309;28;20051;-56
2023/06/23 00:16:05;;;;;;;14.40;12.35;;;17.10;99.90;;;;;;5095424;28;20459;-56
2023/06/23 00:18:36;;;;;;;15.63;11.63;;;17.10;99.90;;;;;;5095662;28;20659;-56
2023/06/23 00:21:04;;;;;;;17.40;12.88;;;17.40;99.90;;;;;;5095746;28;20047;-56
2023/06/23 00:23:30;;;;;;;16.40;11.50;;;17.30;99.90;;;;;;5094609;28;20035;-56
2023/06/23 00:25:57;;;;;;;13.93;10.57;;;17.10;99.90;;;;;;5094415;28;20040;-56
2023/06/23 00:28:24;;;;;;;16.67;11.07;;;17.30;99.90;;;;;;5094386;28;20043;-55
2023/06/23 00:30:50;;;;;;;16.40;11.55;;;17.40;99.90;;;;;;5097744;28;20044;-57
2023/06/23 00:33:17;;;;;;;15.80;11.25;;;17.20;99.90;;;;;;5095943;28;20114;-56
2023/06/23 00:35:43;;;;;;;17.25;12.00;;;17.20;99.90;;;;;;5087560;28;20081;-56
2023/06/23 00:38:09;;;;;;;15.40;12.07;;;17.30;99.90;;;;;;5096633;28;20055;-56
2023/06/23 00:40:34;;;;;;;16.42;12.30;;;17.00;99.90;;;;;;5096213;28;20442;-57
2023/06/23 00:43:00;;;;;;;15.68;11.85;;;17.10;99.90;;;;;;5095838;28;20051;-56
2023/06/23 00:45:26;;;;;;;18.92;12.05;;;17.10;99.90;;;;;;5095362;28;20040;-56
2023/06/23 00:47:52;;;;;;;17.13;12.43;;;17.10;99.90;;;;;;5095315;28;20039;-57
2023/06/23 00:50:23;;;;;;;14.55;12.98;;;17.10;99.90;;;;;;5084499;28;20092;-57
2023/06/23 00:52:51;;;;;;;14.80;11.68;;;17.10;99.90;;;;;;5095461;28;20071;-56
2023/06/23 00:55:25;;;;;;;18.77;13.68;;;17.10;99.90;;;;;;5094808;28;20104;-56
2023/06/23 00:57:52;;;;;;;18.92;13.57;;;17.00;99.90;;;;;;5096514;28;20522;-56
2023/06/23 01:00:19;;;;;;;18.17;13.38;;;16.90;99.90;;;;;;5096709;28;20043;-57
2023/06/23 01:02:49;;;;;;;17.25;13.63;;;17.10;99.90;;;;;;5095452;28;20563;-56
2023/06/23 01:05:16;;;;;;;19.30;12.77;;;16.90;99.90;;;;;;5094706;28;20054;-56
2023/06/23 01:07:49;;;;;;;17.40;12.55;;;17.10;99.90;;;;;;5096728;28;20028;-56
2023/06/23 01:10:24;;;;;;;16.13;11.27;;;17.00;99.90;;;;;;5095183;28;20047;-56
2023/06/23 01:13:15;;;;;;;14.98;10.65;;;17.10;99.90;;;;;;5094927;28;20036;-56
2023/06/23 01:15:48;;;;;;;18.83;11.65;;;16.90;99.90;;;;;;5078765;28;20357;-56
2023/06/23 01:18:24;;;;;;;16.35;11.95;;;16.80;99.90;;;;;;5083341;28;20044;-56
2023/06/23 01:20:52;;;;;;;15.48;11.55;;;16.90;99.90;;;;;;5094624;28;20031;-56
2023/06/23 01:24:04;;;;;;;17.98;12.23;;;16.80;99.90;;;;;;5094429;28;20043;-56
2023/06/23 01:26:55;;;;;;;17.77;12.10;;;16.50;99.90;;;;;;5093819;28;20047;-56
2023/06/23 01:29:29;;;;;;;18.20;13.27;;;16.70;99.90;;;;;;5093897;28;20028;-56
2023/06/23 01:32:20;;;;;;;17.75;12.00;;;16.70;99.90;;;;;;5095127;28;20111;-56
2023/06/23 01:34:52;;;;;;;16.17;11.32;;;16.90;99.90;;;;;;5093215;28;20099;-56
2023/06/23 01:37:25;;;;;;;13.68;12.05;;;16.70;99.90;;;;;;5090649;28;20622;-56
2023/06/23 01:39:56;;;;;;;14.55;12.30;;;17.00;99.90;;;;;;5094623;28;20396;-56
2023/06/23 01:42:32;;;;;;;16.02;11.95;;;16.80;99.90;;;;;;5093361;28;20097;-56
2023/06/23 01:45:00;;;;;;;15.15;11.13;;;16.90;99.90;;;;;;5092685;28;20134;-56
2023/06/23 01:47:31;;;;;;;15.30;10.65;;;16.70;99.90;;;;;;5092937;28;20668;-56
2023/06/23 01:50:01;;;;;;;15.65;11.02;;;16.70;99.90;;;;;;5092520;28;20044;-56
2023/06/23 01:52:29;;;;;;;15.25;11.18;;;16.50;99.90;;;;;;5093163;28;20093;-56
2023/06/23 01:54:56;;;;;;;13.85;10.50;;;16.70;99.90;;;;;;5093394;28;20575;-55
2023/06/23 01:57:23;;;;;;;16.15;11.18;;;16.70;99.90;;;;;;5094049;28;20404;-56
2023/06/23 01:59:51;;;;;;;14.57;10.50;;;16.70;99.90;;;;;;5093516;28;20047;-56
2023/06/23 02:02:19;;;;;;;14.82;10.52;;;16.70;99.90;;;;;;5094717;28;20531;-56
2023/06/23 02:04:47;;;;;;;17.20;9.77;;;16.70;99.90;;;;;;5094185;28;20043;-56
2023/06/23 02:07:16;;;;;;;12.90;9.02;;;16.50;99.90;;;;;;5095520;28;20433;-56
2023/06/23 02:09:43;;;;;;;12.60;8.80;;;16.40;99.90;;;;;;5094963;28;20263;-56
2023/06/23 02:12:10;;;;;;;11.15;8.82;;;16.60;99.90;;;;;;5093722;28;20051;-56
2023/06/23 02:14:38;;;;;;;13.15;8.85;;;16.50;99.90;;;;;;5086968;28;20096;-56
2023/06/23 02:17:09;;;;;;;12.13;9.23;;;16.60;99.90;;;;;;5093844;28;20401;-56
2023/06/23 02:19:41;;;;;;;12.63;8.90;;;16.60;99.90;;;;;;5092407;28;20081;-56
2023/06/23 02:22:11;;;;;;;16.02;9.32;;;16.50;99.90;;;;;;5092866;28;20035;-56
2023/06/23 02:24:39;;;;;;;14.27;8.30;;;16.50;99.90;;;;;;5092383;28;20044;-56
2023/06/23 02:27:06;;;;;;;14.77;8.00;;;16.60;99.90;;;;;;5093108;28;20047;-56
2023/06/23 02:29:35;;;;;;;12.00;8.13;;;16.40;99.90;;;;;;5093040;28;20459;-56
2023/06/23 02:32:02;;;;;;;13.15;8.05;;;16.30;99.90;;;;;;5093561;28;20058;-56
2023/06/23 02:34:29;;;;;;;11.82;8.07;;;16.40;99.90;;;;;;5092934;28;20040;-56
2023/06/23 02:37:02;;;;;;;11.90;9.00;;;16.40;99.90;;;;;;5093167;28;20043;-56
2023/06/23 02:39:33;;;;;;;14.35;9.18;;;16.20;99.90;;;;;;5092902;28;20504;-56
2023/06/23 02:42:00;;;;;;;15.73;8.63;;;16.30;99.90;;;;;;5091927;28;20589;-56
2023/06/23 02:44:32;;;;;;;14.45;9.10;;;16.30;99.90;;;;;;5086059;28;20043;-56
2023/06/23 02:46:59;;;;;;;;;;;16.40;99.90;;;;;;5092198;28;20044;-56
2023/06/23 02:49:28;;;;;;;16.27;8.02;;;16.40;99.90;;;;;;5092058;28;19966;-55
2023/06/23 02:51:58;;;;;;;12.77;8.80;;;16.30;99.90;;;;;;5093164;28;20043;-56
2023/06/23 02:54:26;;;;;;;12.90;8.43;;;16.10;99.90;;;;;;5093623;28;20086;-57
2023/06/23 02:56:56;;;;;;;11.60;8.32;;;16.10;99.90;;;;;;5083385;28;20093;-56
2023/06/23 02:59:24;;;;;;;12.43;8.43;;;16.20;99.90;;;;;;5092393;28;20050;-56
2023/06/23 03:01:55;;;;;;;13.38;8.32;;;16.00;99.90;;;;;;5092444;28;20054;-56
2023/06/23 03:04:22;;;;;;;11.52;7.45;;;16.20;99.90;;;;;;5092314;28;20043;-56
2023/06/23 03:06:47;;;;;;;11.43;8.07;;;16.10;99.90;;;;;;5082897;28;20047;-56
2023/06/23 03:09:13;;;;;;;12.40;9.45;;;18.10;99.90;;;;;;5094181;28;20048;-56
2023/06/23 03:11:39;;;;;;;15.32;8.75;;;16.10;99.90;;;;;;5085063;28;20078;-57
2023/06/23 03:14:05;;;;;;;12.30;9.23;;;16.00;99.90;;;;;;5090999;28;20610;-55
2023/06/23 03:16:46;;;;;;;14.40;9.20;;;16.00;99.90;;;;;;5092167;28;20055;-56
2023/06/23 03:19:31;;;;;;;13.55;9.35;;;15.90;99.90;;;;;;5092693;28;20048;-56
2023/06/23 03:22:09;;;;;;;11.05;8.52;;;15.80;99.90;;;;;;5092327;28;20040;-56
2023/06/23 03:24:38;;;;;;;12.82;8.63;;;15.90;99.90;;;;;;5093008;28;20130;-57
2023/06/23 03:27:09;;;;;;;12.48;9.38;;;15.80;99.90;;;;;;5087323;28;20404;-56
2023/06/23 03:29:43;;;;;;;14.80;10.07;;;15.90;99.90;;;;;;5093782;28;20071;-56
2023/06/23 03:32:12;;;;;;;12.27;9.35;;;15.80;99.90;;;;;;5092329;28;20074;-56
2023/06/23 03:34:47;;;;;;;15.23;9.40;;;15.90;99.90;;;;;;5092752;28;20035;-55
2023/06/23 03:37:17;;;;;;;12.40;9.32;;;15.70;99.90;;;;;;5092192;28;20039;-56
2023/06/23 03:39:46;;;;;;;13.13;9.45;;;15.70;99.90;;;;;;5093313;28;20078;-56
2023/06/23 03:42:12;;;;;;;13.23;9.52;;;15.50;99.90;;;;;;5093226;28;20049;-56
2023/06/23 03:44:45;;;;;;;11.82;9.65;;;15.60;99.90;;;;;;5096790;28;20080;-56
2023/06/23 03:47:20;;;;;;;13.93;9.30;;;15.60;99.90;;;;;;5096153;28;20399;-57
2023/06/23 03:49:51;;;;;;;13.82;9.43;;;15.30;99.90;;;;;;5096096;28;21165;-56
2023/06/23 03:52:18;;;;;;;14.43;10.60;;;15.50;99.90;;;;;;5096016;28;20049;-55
2023/06/23 03:54:47;;;;;;;15.48;10.25;;;15.20;99.90;;;;;;5095425;28;20079;-53
2023/06/23 03:57:17;;;;;;;14.18;9.85;;;15.30;99.90;;;;;;5094283;28;20523;-55
2023/06/23 03:59:44;;;;;;;15.43;10.18;;;15.30;99.90;;;;;;5094930;28;20206;-55
2023/06/23 04:02:12;;;;;;;14.68;10.50;;;15.20;99.90;;;;;;5096451;28;20066;-55
2023/06/23 04:04:42;;;;;;;12.18;9.88;;;15.10;99.90;;;;;;5087703;28;20046;-55
2023/06/23 04:07:09;;;;;;;13.77;9.38;;;15.00;99.90;;;;;;5095864;28;20093;-55
2023/06/23 04:09:39;;;;;;;14.93;10.30;;;15.00;99.90;;;;;;5097586;28;20120;-55
2023/06/23 04:12:06;;;;;;;11.30;9.32;;;15.10;99.90;;;;;;5095182;28;20051;-56
2023/06/23 04:14:33;;;;;;;11.77;9.48;;;15.00;99.90;;;;;;5095964;28;20583;-55
2023/06/23 04:17:01;;;;;;;12.88;11.18;;;14.90;99.90;;;;;;5095611;28;20180;-55
2023/06/23 04:19:29;;;;;;;14.82;10.75;;;14.90;99.90;;;;;;5094539;28;20558;-55
2023/06/23 04:21:56;;;;;;;12.98;10.77;;;14.90;99.90;;;;;;5094458;28;20053;-55
2023/06/23 04:24:22;;;;;;;13.82;10.82;;;15.00;99.90;;;;;;5095931;28;20051;-55
2023/06/23 04:26:54;;;;;;;17.60;11.95;;;14.90;99.90;;;;;;5096231;28;20048;-55
2023/06/23 04:29:23;;;;;;;20.05;11.65;;;15.00;99.90;;;;;;5095863;28;20055;-55
2023/06/23 04:31:51;;;;;;;15.20;11.52;;;15.10;99.90;;;;;;5091407;28;20040;-55
2023/06/23 04:34:16;;;;;;;14.93;11.20;;;15.10;99.90;;;;;;5087796;28;20044;-54
2023/06/23 04:37:01;;;;;;;16.58;11.43;;;15.00;99.90;;;;;;5095369;28;20043;-55
2023/06/23 04:39:31;;;;;;;14.85;12.07;;;15.20;99.90;;;;;;5088824;28;20127;-55
2023/06/23 04:42:02;;;;;;;14.18;12.23;;;15.20;99.90;;;;;;5092122;28;20097;-55
2023/06/23 04:44:31;;;;;;;15.60;11.93;;;15.20;99.90;;;;;;5095532;28;20051;-56
2023/06/23 04:47:01;;;;;;;14.52;11.63;;;15.30;99.90;;;;;;5094202;28;20130;-56
2023/06/23 04:49:29;;;;;;;14.00;11.27;;;15.40;99.90;;;;;;5065418;28;20031;-56
2023/06/23 04:51:58;;;;;;;17.75;12.38;;;15.50;99.90;;;;;;5093642;28;20036;-56
2023/06/23 04:54:39;;;;;;;17.92;11.98;;;15.60;99.90;;;;;;5095068;28;20043;-56
2023/06/23 04:57:09;;;;;;;12.60;10.82;;;15.50;99.90;;;;;;5095443;28;20040;-58
2023/06/23 04:59:38;;;;;;;15.63;11.65;;;15.50;99.90;;;;;;5095254;28;20081;-56
2023/06/23 05:02:06;;;;;;;15.18;11.95;;;15.50;99.90;;;;;;5095530;28;20070;-55
2023/06/23 05:04:34;;;;;;;15.20;11.00;;;15.60;99.90;;;;;;5095911;28;20035;-56
2023/06/23 05:07:02;;;;;;;17.17;11.57;;;15.80;99.90;;;;;;5095998;28;20450;-55
2023/06/23 05:09:29;;;;;;;14.57;11.07;;;15.80;99.90;;;;;;5095980;28;20044;-55
2023/06/23 05:11:57;;;;;;;16.77;11.43;;;16.00;99.90;;;;;;5094503;28;20035;-55
2023/06/23 05:14:25;;;;;;;13.15;11.63;;;15.80;99.90;;;;;;5084095;28;20044;-56
2023/06/23 05:16:52;;;;;;;15.80;11.95;;;16.00;99.90;;;;;;5094289;28;20110;-56
2023/06/23 05:19:20;;;;;;;15.52;10.88;;;16.00;99.90;;;;;;5093458;28;20043;-56
2023/06/23 05:21:47;;;;;;;14.73;10.98;;;16.00;99.90;;;;;;5094057;28;20043;-56
2023/06/23 05:24:15;;;;;;;12.27;9.65;;;16.00;99.90;;;;;;5069609;28;20457;-56
2023/06/23 05:26:42;;;;;;;12.82;10.40;;;16.20;99.90;;;;;;5093122;28;20138;-55
2023/06/23 05:29:10;;;;;;;13.85;10.05;;;15.70;99.90;;;;;;5094309;28;20043;-55
2023/06/23 05:31:40;;;;;;;15.77;10.65;;;16.70;99.90;;;;;;5093790;28;20576;-56
2023/06/23 05:34:09;;;;;;;15.63;10.55;;;16.10;99.90;;;;;;5094050;28;20049;-56
2023/06/23 05:36:36;;;;;;;14.13;11.35;;;16.10;99.90;;;;;;5093863;28;20043;-56
2023/06/23 05:39:04;;;;;;;13.88;10.93;;;16.20;99.90;;;;;;5094465;28;20130;-56
2023/06/23 05:41:30;;;;;;;15.45;11.32;;;16.20;99.90;;;;;;5092841;28;20310;-56
2023/06/23 05:43:56;;;;;;;14.95;10.45;;;16.50;99.90;;;;;;5092682;28;20066;-56
2023/06/23 05:46:24;;;;;;;14.65;9.88;;;16.30;99.90;;;;;;5093972;28;20074;-56
2023/06/23 05:49:16;;;;;;;14.88;9.55;;;16.40;99.90;;;;;;5092807;28;20050;-56
2023/06/23 05:51:42;;;;;;;16.60;10.33;;;16.60;99.90;;;;;;5084903;28;20059;-56
2023/06/23 05:54:11;;;;;;;10.88;8.93;;;17.20;99.90;;;;;;5092127;28;20296;-56
2023/06/23 05:56:42;;;;;;;14.82;9.63;;;16.90;99.90;;;;;;5092362;28;20039;-56
2023/06/23 05:59:14;;;;;;;13.95;9.13;;;19.10;99.90;;;;;;5092216;28;20055;-55
2023/06/23 06:01:43;;;;;;;13.50;8.70;;;17.30;99.90;;;;;;5092279;28;20472;-55
2023/06/23 06:04:13;;;;;;;12.30;8.35;;;17.60;99.90;;;;;;5083394;28;20850;-56
2023/06/23 06:06:40;;;;;;;13.32;9.15;;;17.70;99.90;;;;;;5094229;28;20047;-55
2023/06/23 06:09:11;;;;;;;10.82;8.52;;;17.80;99.90;;;;;;5068441;28;20450;-56
2023/06/23 06:11:38;;;;;;;13.25;7.97;;;17.90;99.90;;;;;;5093038;28;20085;-56
2023/06/23 06:14:07;;;;;;;13.23;9.00;;;18.10;99.90;;;;;;5092240;28;20096;-56
2023/06/23 06:16:35;;;;;;;13.77;8.43;;;18.40;99.90;;;;;;5091754;28;20500;-55
2023/06/23 06:19:02;;;;;;;9.63;7.63;;;18.60;99.90;;;;;;5092987;27;20043;-55
2023/06/23 06:21:30;;;;;;;11.80;8.60;;;18.20;99.90;;;;;;5093604;28;20047;-54
2023/06/23 06:23:58;;;;;;;12.80;8.48;;;19.40;99.90;;;;;;5092833;28;20101;-55
2023/06/23 06:26:25;;;;;;;11.70;7.13;;;19.70;99.90;;;;;;5091287;28;20066;-56
2023/06/23 06:28:53;;;;;;;11.20;7.30;;;20.20;99.90;;;;;;5094009;28;20535;-56
2023/06/23 06:31:20;;;;;;;11.35;7.63;;;19.70;99.90;;;;;;5092475;28;20039;-56
2023/06/23 06:33:50;;;;;;;9.80;6.82;;;19.90;99.90;;;;;;5090543;28;20131;-56
2023/06/23 06:36:18;;;;;;;7.57;6.22;;;19.90;99.90;;;;;;5090771;28;20179;-55
2023/06/23 06:38:47;;;;;;;10.82;7.30;;;20.10;99.90;;;;;;5090203;28;20082;-55
2023/06/23 06:41:14;;;;;;;8.02;6.00;;;20.10;99.90;;;;;;5090340;28;20280;-55
2023/06/23 06:43:40;;;;;;;10.20;6.68;;;20.30;99.90;;;;;;5080918;28;20059;-55
2023/06/23 06:46:07;;;;;;;8.75;6.35;;;20.40;99.90;;;;;;5092323;28;20055;-56
2023/06/23 06:48:34;;;;;;;10.45;6.18;;;20.30;99.90;;;;;;5081743;28;20152;-54
2023/06/23 06:51:01;;;;;;;9.82;6.13;;;20.50;99.90;;;;;;5091149;28;20032;-55
2023/06/23 06:53:29;;;;;;;9.23;6.20;;;20.50;99.90;;;;;;5091046;28;20133;-56
2023/06/23 06:55:55;;;;;;;9.65;6.32;;;20.80;99.90;;;;;;5093281;28;20533;-56
2023/06/23 06:58:22;;;;;;;8.40;5.68;;;20.80;99.90;;;;;;5092599;28;20035;-56
2023/06/23 07:00:48;;;;;;;7.28;5.05;;;21.00;99.90;;;;;;5093311;28;20071;-55
2023/06/23 07:03:15;;;;;;;9.07;5.78;;;21.20;99.90;;;;;;5091238;28;20142;-55
2023/06/23 07:05:41;;;;;;;7.65;5.43;;;21.40;99.90;;;;;;5092144;28;20112;-55
2023/06/23 07:08:07;;;;;;;11.07;5.65;;;21.70;99.90;;;;;;5091931;28;20056;-55
2023/06/23 07:10:34;;;;;;;6.80;4.18;;;21.80;99.90;;;;;;5095483;28;20107;-55
2023/06/23 07:13:01;;;;;;;8.05;4.25;;;23.00;99.90;;;;;;5091232;28;20447;-55
2023/06/23 07:15:27;;;;;;;6.53;4.20;;;23.10;99.90;;;;;;5070758;28;20032;-56
2023/06/23 07:17:53;;;;;;;8.15;4.00;;;24.70;99.90;;;;;;5080726;28;20039;-56
2023/06/23 07:20:19;;;;;;;12.07;3.92;;;24.60;99.90;;;;;;5092710;28;20055;-56
2023/06/23 07:22:45;;;;;;;8.57;4.85;;;25.50;99.90;;;;;;5085411;28;20142;-56
2023/06/23 07:25:11;;;;;;;7.50;4.05;;;26.30;99.90;;;;;;5086178;28;20051;-56
2023/06/23 07:27:37;;;;;;;7.70;4.72;;;26.80;99.90;;;;;;5092090;28;22961;-56
2023/06/23 07:30:04;;;;;;;8.00;4.65;;;27.40;99.90;;;;;;5092841;28;20127;-56
2023/06/23 07:32:30;;;;;;;6.20;3.88;;;27.70;99.90;;;;;;5091572;28;20058;-56
2023/06/23 07:34:55;;;;;;;7.40;4.88;;;28.30;99.90;;;;;;5093029;28;20450;-56
2023/06/23 07:37:21;;;;;;;9.07;5.00;;;28.90;99.90;;;;;;5093096;28;20086;-56
2023/06/23 07:39:47;;;;;;;7.30;4.50;;;29.40;99.90;;;;;;5095895;28;20038;-56
2023/06/23 07:42:13;;;;;;;6.47;4.32;;;29.70;99.90;;;;;;5085655;28;20043;-56
2023/06/23 07:44:39;;;;;;;7.75;4.60;;;30.00;99.90;;;;;;5092913;28;20047;-55
2023/06/23 07:47:05;;;;;;;6.65;4.55;;;29.80;99.90;;;;;;5092450;28;20086;-56
2023/06/23 07:49:31;;;;;;;6.45;3.63;;;30.20;99.90;;;;;;5092724;28;20136;-56
2023/06/23 07:52:00;;;;;;;5.07;3.35;;;30.20;99.90;;;;;;5092182;28;20118;-56
2023/06/23 07:54:29;;;;;;;6.57;4.03;;;30.40;99.90;;;;;;5080509;28;20492;-56
2023/06/23 07:56:59;;;;;;;6.95;3.67;;;30.50;99.90;;;;;;5092944;28;20074;-56
2023/06/23 07:59:25;;;;;;;7.57;4.80;;;30.40;99.90;;;;;;5091942;28;20246;-56
2023/06/23 08:01:52;;;;;;;7.85;3.90;;;30.70;99.90;;;;;;5092628;28;20036;-56
2023/06/23 08:04:18;;;;;;;5.63;3.10;;;30.60;99.90;;;;;;5092189;28;20578;-56
2023/06/23 08:06:44;;;;;;;6.63;3.40;;;30.70;99.90;;;;;;5082392;28;20040;-56
2023/06/23 08:09:10;;;;;;;5.75;3.38;;;30.70;99.90;;;;;;5092372;28;20545;-56
2023/06/23 08:11:36;;;;;;;6.20;3.15;;;30.50;99.90;;;;;;5093088;28;20044;-56
2023/06/23 08:14:02;;;;;;;19.27;3.40;;;30.50;99.90;;;;;;5089587;28;20134;-56
2023/06/23 08:16:28;;;;;;;6.10;3.10;;;30.60;99.90;;;;;;5090681;28;20054;-56
2023/06/23 08:18:53;;;;;;;6.47;3.65;;;30.40;99.90;;;;;;5090440;28;20036;-56
2023/06/23 08:21:19;;;;;;;7.40;4.57;;;30.10;99.90;;;;;;5091486;28;20044;-56
2023/06/23 08:23:46;;;;;;;8.75;4.38;;;30.40;99.90;;;;;;5089559;28;20446;-55
2023/06/23 08:26:12;;;;;;;5.40;4.18;;;30.20;99.90;;;;;;5089964;28;20101;-56
2023/06/23 08:28:38;;;;;;;7.10;4.80;;;30.20;99.90;;;;;;5092581;28;20131;-56
2023/06/23 08:31:04;;;;;;;6.28;3.90;;;30.20;99.90;;;;;;5096491;28;20635;-55
2023/06/23 08:33:33;;;;;;;8.43;4.95;;;30.10;99.90;;;;;;5093087;28;20602;-56
2023/06/23 08:35:58;;;;;;;7.90;5.40;;;30.40;99.90;;;;;;5094711;28;20050;-55
2023/06/23 08:38:25;;;;;;;8.85;5.65;;;30.30;99.90;;;;;;5086335;28;20047;-56
2023/06/23 08:40:56;;;;;;;6.80;4.68;;;30.40;99.90;;;;;;5086949;28;20111;-54
2023/06/23 08:43:28;;;;;;;8.55;3.92;;;29.50;99.90;;;;;;5094672;28;20105;-55
2023/06/23 08:45:58;;;;;;;6.78;3.78;;;29.60;99.90;;;;;;5088564;28;20563;-55
2023/06/23 08:48:29;;;;;;;5.18;3.53;;;29.40;99.90;;;;;;5093110;28;20362;-56
2023/06/23 08:51:00;;;;;;;5.30;2.92;;;29.50;99.90;;;;;;5095231;28;20093;-56
2023/06/23 08:53:26;;;;;;;6.75;3.85;;;29.40;99.90;;;;;;5094435;28;20151;-55
2023/06/23 08:55:53;;;;;;;7.07;4.93;;;29.10;99.90;;;;;;5088581;28;20043;-55
2023/06/23 08:58:24;;;;;;;6.35;3.90;;;29.10;99.90;;;;;;5096137;28;20036;-56
2023/06/23 09:00:52;;;;;;;5.53;3.67;;;29.20;99.90;;;;;;5096672;28;20147;-54
2023/06/23 09:03:20;;;;;;;6.55;3.72;;;28.80;99.90;;;;;;5095178;28;20101;-54
2023/06/23 09:05:46;;;;;;;8.57;3.50;;;28.70;99.90;;;;;;5094808;28;20135;-52
2023/06/23 09:08:13;;;;;;;13.85;3.75;;;28.50;99.90;;;;;;5084135;28;20490;-54
2023/06/23 09:10:38;;;;;;;3.92;2.05;;;28.70;99.90;;;;;;5096295;28;20038;-55
2023/06/23 09:13:07;;;;;;;5.15;2.55;;;28.60;99.90;;;;;;5093180;28;20032;-54
2023/06/23 09:15:36;;;;;;;5.25;2.80;;;28.00;99.90;;;;;;5092651;28;20043;-56
2023/06/23 09:18:02;;;;;;;5.00;2.67;;;28.00;99.90;;;;;;5092708;28;20058;-54
2023/06/23 09:20:30;;;;;;;10.00;3.25;;;27.60;99.90;;;;;;5095518;28;20040;-54
2023/06/23 09:22:57;;;;;;;6.60;3.58;;;27.40;99.90;;;;;;5085239;28;20146;-55
2023/06/23 09:25:47;;;;;;;7.43;3.65;;;27.10;99.90;;;;;;5092191;28;20073;-55
2023/06/23 09:28:29;;;;;;;5.70;3.70;;;28.70;99.90;;;;;;5092524;28;20098;-55
2023/06/23 09:31:00;;;;;;;6.28;3.30;;;26.90;99.90;;;;;;5082227;28;20354;-55
2023/06/23 09:33:26;;;;;;;7.78;3.50;;;26.80;99.90;;;;;;5093461;28;20042;-54
2023/06/23 09:35:56;;;;;;;5.88;2.97;;;26.70;99.90;;;;;;5094099;28;20039;-56
2023/06/23 09:38:25;;;;;;;7.63;2.88;;;26.80;99.90;;;;;;5090601;28;20051;-57
2023/06/23 09:41:06;;;;;;;8.38;2.60;;;26.70;99.90;;;;;;5093026;28;20565;-57
2023/06/23 09:43:41;;;;;;;8.73;2.77;;;26.70;99.90;;;;;;5092980;28;20344;-56
2023/06/23 09:46:09;;;;;;;15.70;3.90;;;26.80;99.90;;;;;;5092083;28;20065;-56
2023/06/23 09:48:35;;;;;;;5.18;3.20;;;27.00;99.90;;;;;;5084255;28;20051;-59
2023/06/23 09:51:05;;;;;;;7.75;3.63;;;26.60;99.90;;;;;;5092490;28;20035;-57
2023/06/23 09:53:35;;;;;;;6.95;3.40;;;26.40;99.90;;;;;;5092345;28;20043;-58
2023/06/23 09:56:03;;;;;;;6.32;3.13;;;26.20;99.90;;;;;;5092634;28;20069;-58
2023/06/23 09:58:32;;;;;;;6.78;3.25;;;26.40;99.90;;;;;;5092751;28;20126;-58
2023/06/23 10:01:02;;;;;;;6.10;3.50;;;26.30;99.90;;;;;;5092813;28;20097;-57
2023/06/23 10:03:30;;;;;;;14.15;3.08;;;26.50;99.90;;;;;;5092956;28;20038;-58
2023/06/23 10:05:59;;;;;;;6.35;3.10;;;26.10;99.90;;;;;;5093625;28;20052;-58
2023/06/23 10:08:26;;;;;;;8.40;3.17;;;25.90;99.90;;;;;;5093221;28;20044;-58
2023/06/23 10:10:52;;;;;;;5.95;2.90;;;26.20;99.90;;;;;;5093557;28;20055;-59
2023/06/23 10:13:18;;;;;;;5.38;3.00;;;26.20;99.90;;;;;;5092843;28;20131;-58
2023/06/23 10:15:44;;;;;;;6.97;3.10;;;26.10;99.90;;;;;;5092561;28;20844;-58
2023/06/23 10:18:11;;;;;;;5.50;3.40;;;26.30;99.90;;;;;;5093331;28;20055;-59
2023/06/23 10:20:38;;;;;;;6.90;3.33;;;26.20;99.90;;;;;;5092194;28;20407;-59
2023/06/23 10:23:04;;;;;;;6.57;3.17;;;26.10;99.90;;;;;;5092512;28;20075;-58
2023/06/23 10:25:34;;;;;;;6.47;3.33;;;26.00;99.90;;;;;;5093382;28;20036;-59
2023/06/23 10:28:07;;;;;;;6.15;2.75;;;26.40;99.90;;;;;;5091902;28;20692;-59
2023/06/23 10:30:33;;;;;;;5.57;2.90;;;26.30;99.90;;;;;;5091710;28;20036;-59
2023/06/23 10:33:02;;;;;;;5.05;2.92;;;26.30;99.90;;;;;;5087229;28;20028;-59
2023/06/23 10:35:30;;;;;;;5.05;2.85;;;26.80;99.90;;;;;;5091431;28;20051;-59
2023/06/23 10:38:08;;;;;;;8.82;3.20;;;27.00;99.90;;;;;;5091554;28;20028;-59
2023/06/23 10:40:39;;;;;;;7.22;3.15;;;27.10;99.90;;;;;;5094020;28;20040;-59
2023/06/23 10:43:06;;;;;;;8.85;3.28;;;27.00;99.90;;;;;;5085857;28;20051;-59
2023/06/23 10:45:33;;;;;;;4.85;2.75;;;27.20;99.90;;;;;;5084039;28;20137;-59
2023/06/23 10:47:59;;;;;;;6.07;2.72;;;27.30;99.90;;;;;;5091108;28;20578;-59
2023/06/23 10:50:29;;;;;;;6.68;2.75;;;27.30;99.90;;;;;;5091115;28;20089;-60
2023/06/23 10:52:56;;;;;;;6.63;3.05;;;27.20;99.90;;;;;;5091204;28;20050;-59
2023/06/23 10:55:43;;;;;;;9.18;2.70;;;27.20;99.90;;;;;;5090203;28;20462;-59
2023/06/23 10:58:10;;;;;;;5.43;2.90;;;27.50;99.90;;;;;;5089298;28;20508;-60
2023/06/23 11:00:36;;;;;;;10.70;2.50;;;27.30;99.90;;;;;;5091266;28;20078;-60
2023/06/23 11:03:05;;;;;;;4.88;2.50;;;27.50;99.90;;;;;;5089938;28;20533;-60
2023/06/23 11:05:31;;;;;;;4.95;3.10;;;27.30;99.90;;;;;;5091439;28;20797;-60
2023/06/23 11:08:08;;;;;;;6.43;2.60;;;27.20;99.90;;;;;;5091352;28;20050;-60
2023/06/23 11:10:51;;;;;;;5.30;2.35;;;27.30;99.90;;;;;;5093496;28;20035;-60
2023/06/23 11:13:17;;;;;;;5.18;2.40;;;27.10;99.90;;;;;;5091772;28;20783;-60
2023/06/23 11:15:58;;;;;;;96.43;10.32;;;28.40;99.90;;;;;;5086547;28;20075;-60
2023/06/23 11:18:26;;;;;;;30.70;5.70;;;27.10;99.90;;;;;;5092861;28;20039;-59
2023/06/23 11:20:52;;;;;;;10.07;3.50;;;27.30;99.90;;;;;;5092313;28;20393;-59
2023/06/23 11:23:18;;;;;;;5.55;2.67;;;26.70;99.90;;;;;;5092445;28;20500;-60
2023/06/23 11:25:49;;;;;;;7.25;2.65;;;27.20;99.90;;;;;;5092746;28;20325;-60
2023/06/23 11:28:38;;;;;;;6.10;2.80;;;27.30;99.90;;;;;;5084488;28;20081;-60
2023/06/23 11:31:18;;;;;;;22.33;5.28;;;27.20;99.90;;;;;;5092473;28;20036;-61
2023/06/23 11:33:58;;;;;;;5.00;2.50;;;27.20;99.90;;;;;;5091016;28;20825;-60
2023/06/23 11:36:26;;;;;;;5.13;2.28;;;27.40;99.90;;;;;;5092015;28;20431;-60
2023/06/23 11:38:53;;;;;;;14.85;3.38;;;27.20;99.90;;;;;;5091659;28;20097;-59
2023/06/23 11:41:27;;;;;;;27.27;3.90;;;27.20;99.90;;;;;;5093341;28;20044;-60
2023/06/23 11:44:00;;;;;;;4.88;2.38;;;27.30;99.90;;;;;;5079282;28;20060;-60
2023/06/23 11:46:30;;;;;;;5.32;2.85;;;27.30;99.90;;;;;;5091769;28;20518;-60
2023/06/23 11:48:56;;;;;;;4.68;2.10;;;27.30;99.90;;;;;;5089868;28;20543;-60
2023/06/23 11:51:22;;;;;;;4.82;2.38;;;27.30;99.90;;;;;;5092683;28;20028;-60
2023/06/23 11:53:54;;;;;;;6.85;3.08;;;26.90;99.90;;;;;;5084183;28;20047;-61
2023/06/23 11:56:20;;;;;;;5.82;2.10;;;27.30;99.90;;;;;;5092555;28;20051;-62
2023/06/23 11:58:51;;;;;;;9.18;2.25;;;27.70;99.90;;;;;;5090915;28;20047;-60
2023/06/23 12:01:18;;;;;;;5.72;2.35;;;27.50;99.90;;;;;;5090600;28;20047;-60
2023/06/23 12:03:52;;;;;;;6.55;2.45;;;27.30;99.90;;;;;;5094231;28;20173;-61
2023/06/23 12:06:19;;;;;;;4.60;2.30;;;27.30;99.90;;;;;;5095765;28;20043;-60
2023/06/23 12:08:49;;;;;;;4.45;2.47;;;27.10;99.90;;;;;;5090956;28;20056;-60
2023/06/23 12:11:19;;;;;;;7.00;2.30;;;27.10;99.90;;;;;;5097179;28;20461;-62
2023/06/23 12:13:51;;;;;;;6.45;2.63;;;27.10;99.90;;;;;;5095496;28;20083;-61
2023/06/23 12:16:16;;;;;;;4.70;2.30;;;27.20;99.90;;;;;;5094497;28;20078;-61
2023/06/23 12:18:46;;;;;;;4.82;2.28;;;27.20;99.90;;;;;;5095372;28;20100;-61
2023/06/23 12:21:14;;;;;;;5.57;2.55;;;27.10;99.90;;;;;;5096676;28;21228;-62
2023/06/23 12:23:41;;;;;;;6.10;2.58;;;27.10;99.90;;;;;;5095718;28;20381;-61
2023/06/23 12:26:08;;;;;;;4.88;2.47;;;26.90;99.90;;;;;;5095464;27;20110;-60
2023/06/23 12:28:34;;;;;;;6.55;2.47;;;27.00;99.90;;;;;;5095253;28;20048;-61
2023/06/23 12:31:00;;;;;;;5.45;2.63;;;27.00;99.90;;;;;;5094784;28;20113;-61
2023/06/23 12:33:29;;;;;;;5.43;2.40;;;27.10;99.90;;;;;;5095313;28;20642;-61
2023/06/23 12:36:02;;;;;;;6.63;2.40;;;27.20;99.90;;;;;;5094339;28;20218;-61
2023/06/23 12:38:36;;;;;;;7.65;2.35;;;27.00;99.90;;;;;;5094604;28;20055;-60
2023/06/23 12:41:24;;;;;;;6.18;2.17;;;26.90;99.90;;;;;;5095115;28;20128;-60
2023/06/23 12:43:53;;;;;;;3.75;1.90;;;26.70;99.90;;;;;;5084928;28;20055;-61
2023/06/23 12:46:24;;;;;;;4.78;2.13;;;26.30;99.90;;;;;;5093143;27;20079;-61
2023/06/23 12:48:50;;;;;;;6.65;2.47;;;26.50;99.90;;;;;;5086450;28;20047;-61